createdAt,value
2023-02-25T00:02:18.980Z,5.72
2023-02-25T00:05:21.953Z,6.10
2023-02-25T00:08:24.945Z,6.15
2023-02-25T00:11:30.264Z,9.30
2023-02-25T00:14:33.175Z,8.20
2023-02-25T00:17:38.070Z,5.22
2023-02-25T00:20:41.345Z,7.60
2023-02-25T00:23:46.049Z,9.07
2023-02-25T00:26:50.391Z,8.15
2023-02-25T00:29:53.904Z,5.65
2023-02-25T00:32:56.887Z,4.65
2023-02-25T00:36:00.315Z,5.75
2023-02-25T00:39:03.450Z,4.05
2023-02-25T00:42:07.801Z,6.25
2023-02-25T00:45:12.603Z,4.53
2023-02-25T00:48:15.592Z,5.78
2023-02-25T00:51:21.331Z,5.30
2023-02-25T00:54:26.157Z,5.28
2023-02-25T00:57:30.508Z,9.60
2023-02-25T01:00:46.546Z,5.97
2023-02-25T01:03:55.638Z,5.20
2023-02-25T01:06:58.982Z,5.32
2023-02-25T01:10:02.676Z,4.22
2023-02-25T01:13:07.021Z,7.93
2023-02-25T01:16:15.379Z,4.60
2023-02-25T01:19:20.776Z,4.00
2023-02-25T01:22:24.270Z,5.28
2023-02-25T01:25:27.245Z,2.67
2023-02-25T01:28:31.736Z,9.90
2023-02-25T01:31:34.832Z,4.28
2023-02-25T01:34:39.998Z,3.35
2023-02-25T01:37:46.830Z,3.42
2023-02-25T01:40:57.941Z,5.72
2023-02-25T01:44:09.069Z,4.88
2023-02-25T01:47:21.139Z,3.92
2023-02-25T01:50:28.354Z,2.72
2023-02-25T01:53:38.363Z,2.53
2023-02-25T01:56:45.855Z,2.53
2023-02-25T01:59:52.566Z,4.45
2023-02-25T02:02:57.014Z,3.95
2023-02-25T02:06:07.017Z,3.08
2023-02-25T02:09:13.331Z,5.35
2023-02-25T02:12:16.903Z,2.92
2023-02-25T02:15:21.268Z,4.22
2023-02-25T02:18:25.700Z,3.05
2023-02-25T02:21:56.342Z,3.17
2023-02-25T02:25:31.981Z,5.05
2023-02-25T02:29:04.615Z,3.38
2023-02-25T02:32:17.409Z,3.17
2023-02-25T02:35:24.871Z,2.47
2023-02-25T02:38:36.758Z,3.55
2023-02-25T02:41:48.092Z,3.33
2023-02-25T02:44:57.791Z,3.35
2023-02-25T02:48:06.770Z,3.67
2023-02-25T02:51:16.425Z,3.40
2023-02-25T02:54:20.546Z,2.90
2023-02-25T02:57:27.993Z,2.53
2023-02-25T03:00:37.673Z,2.00
2023-02-25T03:03:47.028Z,4.72
2023-02-25T03:06:54.246Z,3.35
2023-02-25T03:10:01.954Z,4.35
2023-02-25T03:13:08.122Z,2.55
2023-02-25T03:16:18.126Z,2.30
2023-02-25T03:19:26.785Z,2.20
2023-02-25T03:22:33.126Z,2.72
2023-02-25T03:25:47.162Z,2.63
2023-02-25T03:28:51.536Z,1.92
2023-02-25T03:31:59.230Z,3.13
2023-02-25T03:35:09.241Z,3.17
2023-02-25T03:38:17.731Z,3.33
2023-02-25T03:41:22.978Z,4.53
2023-02-25T03:44:32.683Z,3.15
2023-02-25T03:47:38.423Z,4.05
2023-02-25T03:50:48.108Z,1.98
2023-02-25T03:53:52.254Z,2.05
2023-02-25T03:56:58.577Z,1.98
2023-02-25T04:00:01.801Z,1.92
2023-02-25T04:03:05.916Z,3.40
2023-02-25T04:06:12.019Z,5.10
2023-02-25T04:09:15.084Z,1.85
2023-02-25T04:12:18.562Z,2.97
2023-02-25T04:15:21.834Z,2.17
2023-02-25T04:18:26.660Z,3.63
2023-02-25T04:21:33.497Z,1.50
2023-02-25T04:24:36.489Z,3.15
2023-02-25T04:27:40.075Z,2.22
2023-02-25T04:30:43.100Z,1.60
2023-02-25T04:33:49.315Z,2.30
2023-02-25T04:36:53.836Z,2.22
2023-02-25T04:39:56.881Z,1.85
2023-02-25T04:42:59.913Z,4.05
2023-02-25T04:46:03.017Z,1.92
2023-02-25T04:49:06.645Z,2.75
2023-02-25T04:52:11.037Z,2.67
2023-02-25T04:55:14.026Z,2.25
2023-02-25T04:58:17.036Z,1.95
2023-02-25T05:01:20.062Z,2.80
2023-02-25T05:04:23.118Z,1.83
2023-02-25T05:07:27.562Z,3.33
2023-02-25T05:10:30.494Z,2.53
2023-02-25T05:13:34.061Z,1.42
2023-02-25T05:16:37.163Z,1.55
2023-02-25T05:19:40.102Z,2.28
2023-02-25T05:22:44.861Z,1.75
2023-02-25T05:25:47.834Z,2.25
2023-02-25T05:28:51.419Z,1.63
2023-02-25T05:31:55.141Z,1.70
2023-02-25T05:34:58.632Z,1.23
2023-02-25T05:38:02.966Z,2.55
2023-02-25T05:41:07.190Z,1.77
2023-02-25T05:44:11.474Z,2.10
2023-02-25T05:47:15.409Z,1.55
2023-02-25T05:50:18.374Z,1.40
2023-02-25T05:53:22.681Z,2.75
2023-02-25T05:56:30.244Z,1.50
2023-02-25T05:59:36.628Z,1.30
2023-02-25T06:02:39.664Z,1.95
2023-02-25T06:05:43.353Z,1.63
2023-02-25T06:08:49.406Z,2.05
2023-02-25T06:11:52.355Z,1.73
2023-02-25T06:14:55.531Z,2.13
2023-02-25T06:17:58.534Z,1.17
2023-02-25T06:21:05.428Z,1.08
2023-02-25T06:24:11.409Z,1.50
2023-02-25T06:27:14.993Z,3.00
2023-02-25T06:30:18.581Z,1.35
2023-02-25T06:33:21.730Z,1.17
2023-02-25T06:36:25.195Z,0.93
2023-02-25T06:39:29.745Z,1.75
2023-02-25T06:42:32.824Z,1.45
2023-02-25T06:45:37.066Z,1.95
2023-02-25T06:48:40.499Z,1.45
2023-02-25T06:51:43.457Z,1.08
2023-02-25T06:54:47.861Z,1.10
2023-02-25T06:57:50.873Z,2.33
2023-02-25T07:00:54.050Z,1.83
2023-02-25T07:03:57.083Z,1.20
2023-02-25T07:07:00.198Z,1.20
2023-02-25T07:10:04.776Z,1.77
2023-02-25T07:13:08.190Z,2.40
2023-02-25T07:16:11.480Z,1.10
2023-02-25T07:19:16.534Z,0.85
2023-02-25T07:22:20.463Z,1.10
2023-02-25T07:25:25.660Z,1.00
2023-02-25T07:28:28.695Z,1.08
2023-02-25T07:31:31.951Z,0.70
2023-02-25T07:34:35.009Z,1.17
2023-02-25T07:37:38.661Z,2.10
2023-02-25T07:40:43.074Z,0.85
2023-02-25T07:43:46.645Z,1.13
2023-02-25T07:46:49.670Z,0.95
2023-02-25T07:49:52.737Z,0.80
2023-02-25T07:52:55.780Z,1.60
2023-02-25T07:56:00.305Z,1.15
2023-02-25T07:59:03.309Z,1.67
2023-02-25T08:02:10.262Z,1.90
2023-02-25T08:05:13.677Z,1.80
2023-02-25T08:08:16.744Z,1.20
2023-02-25T08:11:23.216Z,1.42
2023-02-25T08:14:26.389Z,1.48
2023-02-25T08:17:32.486Z,1.33
2023-02-25T08:20:35.546Z,2.28
2023-02-25T08:23:38.998Z,2.65
2023-02-25T08:26:44.582Z,7.97
2023-02-25T08:29:47.627Z,3.63
2023-02-25T08:32:50.845Z,2.95
2023-02-25T08:35:53.913Z,1.30
2023-02-25T08:38:58.422Z,5.90
2023-02-25T08:42:02.800Z,2.72
2023-02-25T08:45:06.741Z,2.75
2023-02-25T08:48:09.860Z,4.07
2023-02-25T08:51:14.907Z,3.65
2023-02-25T08:54:18.189Z,4.90
2023-02-25T08:57:22.592Z,3.13
2023-02-25T09:00:25.900Z,3.88
2023-02-25T09:03:29.151Z,5.43
2023-02-25T09:06:33.982Z,3.00
2023-02-25T09:09:37.073Z,4.88
2023-02-25T09:12:43.078Z,5.80
2023-02-25T09:15:46.105Z,2.80
2023-02-25T09:18:51.344Z,4.75
2023-02-25T09:21:54.369Z,8.35
2023-02-25T09:24:57.426Z,4.68
2023-02-25T09:28:02.019Z,5.00
2023-02-25T09:31:05.520Z,7.88
2023-02-25T09:34:10.369Z,3.28
2023-02-25T09:37:14.883Z,5.32
2023-02-25T09:40:22.794Z,7.18
2023-02-25T09:43:31.241Z,6.03
2023-02-25T09:46:41.325Z,3.67
2023-02-25T09:49:49.715Z,7.40
2023-02-25T09:53:02.403Z,1.05
2023-02-25T09:56:07.614Z,7.97
2023-02-25T09:59:16.433Z,7.22
2023-02-25T10:02:33.967Z,6.28
2023-02-25T10:05:44.241Z,3.60
2023-02-25T10:08:54.914Z,8.40
2023-02-25T10:12:05.520Z,3.67
2023-02-25T10:15:28.740Z,1.38
2023-02-25T10:18:46.198Z,10.68
2023-02-25T10:22:14.608Z,5.03
2023-02-25T10:25:21.405Z,6.30
2023-02-25T10:28:25.472Z,5.38
2023-02-25T10:31:32.555Z,2.97
2023-02-25T10:34:39.204Z,7.63
2023-02-25T10:37:42.213Z,6.15
2023-02-25T10:40:45.193Z,5.20
2023-02-25T10:43:48.249Z,5.57
2023-02-25T10:46:56.664Z,5.30
2023-02-25T10:50:15.281Z,3.95
2023-02-25T10:53:19.925Z,6.45
2023-02-25T10:56:23.792Z,6.38
2023-02-25T10:59:33.435Z,3.65
2023-02-25T11:02:42.652Z,5.53
2023-02-25T11:05:45.789Z,8.15
2023-02-25T11:08:48.904Z,6.40
2023-02-25T11:11:55.386Z,6.30
2023-02-25T11:14:58.416Z,11.35
2023-02-25T11:18:07.999Z,9.07
2023-02-25T11:21:14.457Z,5.72
2023-02-25T11:24:20.629Z,6.60
2023-02-25T11:27:33.322Z,7.88
2023-02-25T11:30:40.128Z,5.80
2023-02-25T11:33:50.783Z,13.50
2023-02-25T11:36:54.251Z,14.20
2023-02-25T11:39:57.585Z,15.27
2023-02-25T11:43:17.163Z,20.42
2023-02-25T11:46:24.123Z,21.42
2023-02-25T11:49:37.817Z,18.45
2023-02-25T11:52:45.563Z,23.63
2023-02-25T11:56:02.088Z,24.65
2023-02-25T11:59:22.229Z,22.80
2023-02-25T12:02:33.914Z,25.20
2023-02-25T12:05:56.157Z,29.40
2023-02-25T12:09:31.720Z,22.17
2023-02-25T12:13:13.736Z,23.85
2023-02-25T12:16:55.762Z,24.80
2023-02-25T12:20:31.237Z,27.23
2023-02-25T12:24:12.342Z,28.50
2023-02-25T12:27:43.390Z,21.73
2023-02-25T12:31:32.835Z,28.67
2023-02-25T12:35:07.189Z,20.13
2023-02-25T12:39:06.986Z,23.38
2023-02-25T12:42:28.725Z,19.92
2023-02-25T12:45:48.555Z,19.80
2023-02-25T12:49:12.144Z,23.90
2023-02-25T12:52:35.323Z,20.80
2023-02-25T12:56:30.686Z,21.02
2023-02-25T12:59:49.726Z,22.33
2023-02-25T13:03:07.815Z,16.55
2023-02-25T13:06:43.075Z,21.80
2023-02-25T13:10:02.224Z,17.13
2023-02-25T13:13:25.273Z,16.33
2023-02-25T13:16:50.598Z,19.67
2023-02-25T13:20:20.890Z,17.00
2023-02-25T13:23:47.520Z,19.40
2023-02-25T13:27:00.590Z,19.52
2023-02-25T13:30:31.053Z,19.10
2023-02-25T13:34:03.667Z,16.20
2023-02-25T13:37:35.426Z,15.82
2023-02-25T13:40:51.022Z,18.52
2023-02-25T13:44:18.262Z,18.73
2023-02-25T13:47:46.702Z,13.63
2023-02-25T13:51:11.510Z,14.43
2023-02-25T13:54:41.386Z,16.83
2023-02-25T13:58:01.715Z,13.23
2023-02-25T14:01:23.819Z,16.17
2023-02-25T14:05:05.448Z,18.90
2023-02-25T14:08:25.809Z,14.63
2023-02-25T14:11:44.674Z,16.30
2023-02-25T14:15:09.334Z,17.17
2023-02-25T14:18:45.573Z,14.13
2023-02-25T14:22:04.902Z,12.40
2023-02-25T14:25:21.733Z,15.32
2023-02-25T14:28:51.140Z,16.42
2023-02-25T14:32:25.499Z,15.55
2023-02-25T14:35:46.591Z,15.80
2023-02-25T14:39:07.767Z,14.85
2023-02-25T14:42:29.348Z,14.43
2023-02-25T14:45:38.976Z,16.52
2023-02-25T14:48:48.537Z,15.45
2023-02-25T14:52:21.865Z,13.38
2023-02-25T14:55:42.094Z,20.85
2023-02-25T14:59:14.343Z,16.98
2023-02-25T15:02:45.283Z,17.15
2023-02-25T15:06:14.644Z,16.40
2023-02-25T15:09:34.624Z,17.75
2023-02-25T15:12:57.124Z,19.48
2023-02-25T15:16:25.179Z,19.80
2023-02-25T15:19:58.369Z,20.42
2023-02-25T15:23:11.814Z,25.20
2023-02-25T15:26:24.735Z,21.63
2023-02-25T15:29:51.641Z,20.67
2023-02-25T15:33:07.625Z,21.95
2023-02-25T15:36:28.841Z,28.05
2023-02-25T15:39:50.991Z,27.48
2023-02-25T15:42:55.914Z,30.58
2023-02-25T15:46:38.721Z,22.35
2023-02-25T15:49:47.286Z,25.88
2023-02-25T15:52:56.561Z,26.90
2023-02-25T15:56:29.372Z,24.38
2023-02-25T15:59:47.002Z,25.98
2023-02-25T16:02:54.425Z,24.50
2023-02-25T16:06:02.642Z,26.92
2023-02-25T16:09:09.085Z,24.20
2023-02-25T16:12:15.506Z,25.55
2023-02-25T16:15:27.215Z,23.13
2023-02-25T16:18:35.356Z,24.80
2023-02-25T16:21:44.202Z,24.73
2023-02-25T16:24:50.568Z,22.13
2023-02-25T16:28:02.464Z,21.17
2023-02-25T16:31:12.512Z,24.40
2023-02-25T16:34:22.826Z,24.88
2023-02-25T16:37:37.226Z,21.92
2023-02-25T16:40:42.644Z,20.80
2023-02-25T16:43:46.798Z,20.15
2023-02-25T16:46:52.551Z,27.42
2023-02-25T16:49:57.811Z,20.77
2023-02-25T16:53:04.938Z,21.30
2023-02-25T16:56:20.060Z,21.42
2023-02-25T16:59:24.503Z,21.42
2023-02-25T17:02:27.490Z,24.77
2023-02-25T17:05:33.437Z,19.88
2023-02-25T17:08:39.743Z,19.88
2023-02-25T17:11:55.737Z,20.00
2023-02-25T17:15:00.840Z,16.60
2023-02-25T17:18:09.995Z,11.43
2023-02-25T17:21:20.777Z,11.70
2023-02-25T17:24:28.587Z,14.57
2023-02-25T17:27:31.915Z,9.50
2023-02-25T17:30:37.756Z,12.82
2023-02-25T17:33:49.264Z,11.30
2023-02-25T17:36:53.295Z,11.25
2023-02-25T17:39:58.482Z,8.68
2023-02-25T17:43:23.607Z,11.02
2023-02-25T17:46:36.255Z,9.95
2023-02-25T17:49:40.089Z,12.55
2023-02-25T17:52:49.243Z,11.32
2023-02-25T17:55:53.893Z,12.95
2023-02-25T17:59:01.557Z,13.35
2023-02-25T18:02:25.014Z,11.02
2023-02-25T18:05:28.428Z,17.02
2023-02-25T18:08:31.860Z,13.32
2023-02-25T18:11:38.774Z,12.13
2023-02-25T18:14:45.728Z,11.85
2023-02-25T18:17:50.631Z,12.43
2023-02-25T18:20:59.624Z,13.20
2023-02-25T18:24:02.890Z,12.85
2023-02-25T18:27:30.274Z,14.65
2023-02-25T18:30:34.209Z,15.68
2023-02-25T18:33:37.544Z,14.05
2023-02-25T18:36:40.636Z,14.70
2023-02-25T18:39:43.920Z,15.23
2023-02-25T18:42:48.338Z,15.60
2023-02-25T18:45:51.369Z,15.65
2023-02-25T18:48:54.437Z,15.98
2023-02-25T18:51:57.534Z,15.55
2023-02-25T18:55:00.498Z,17.38
2023-02-25T18:58:05.005Z,17.58
2023-02-25T19:01:08.487Z,18.30
2023-02-25T19:04:17.341Z,16.10
2023-02-25T19:07:20.400Z,19.85
2023-02-25T19:10:26.063Z,17.65
2023-02-25T19:13:34.591Z,23.35
2023-02-25T19:16:38.092Z,19.73
2023-02-25T19:19:41.074Z,21.55
2023-02-25T19:22:44.506Z,19.17
2023-02-25T19:25:50.566Z,17.05
2023-02-25T19:28:55.417Z,20.77
2023-02-25T19:31:58.535Z,19.67
2023-02-25T19:35:04.382Z,21.27
2023-02-25T19:38:09.246Z,21.90
2023-02-25T19:41:14.181Z,20.80
2023-02-25T19:44:18.739Z,20.52
2023-02-25T19:47:22.134Z,20.13
2023-02-25T19:50:27.016Z,21.27
2023-02-25T19:53:30.028Z,21.27
2023-02-25T19:56:33.091Z,22.88
2023-02-25T19:59:37.510Z,21.52
2023-02-25T20:02:40.927Z,33.17
2023-02-25T20:05:44.736Z,22.20
2023-02-25T20:08:52.452Z,22.58
2023-02-25T20:11:55.481Z,22.92
2023-02-25T20:14:59.905Z,20.95
2023-02-25T20:18:02.852Z,24.92
2023-02-25T20:21:06.291Z,20.40
2023-02-25T20:24:09.702Z,23.20
2023-02-25T20:27:12.896Z,25.13
2023-02-25T20:30:18.755Z,23.08
2023-02-25T20:33:22.450Z,21.77
2023-02-25T20:36:28.189Z,27.48
2023-02-25T20:39:48.049Z,22.75
2023-02-25T20:42:51.232Z,23.13
2023-02-25T20:45:56.107Z,20.63
2023-02-25T20:48:59.318Z,20.73
2023-02-25T20:52:02.745Z,22.38
2023-02-25T20:55:06.930Z,21.02
2023-02-25T20:58:10.894Z,21.10
2023-02-25T21:01:15.462Z,22.73
2023-02-25T21:04:18.494Z,21.17
2023-02-25T21:07:21.791Z,18.23
2023-02-25T21:10:24.945Z,20.52
2023-02-25T21:13:28.190Z,23.20
2023-02-25T21:16:32.691Z,17.95
2023-02-25T21:19:36.220Z,20.13
2023-02-25T21:22:39.285Z,18.45
2023-02-25T21:25:42.293Z,18.25
2023-02-25T21:28:46.389Z,23.27
2023-02-25T21:31:50.861Z,18.67
2023-02-25T21:34:53.903Z,23.58
2023-02-25T21:37:56.946Z,10.45
2023-02-25T21:41:06.518Z,11.93
2023-02-25T21:44:09.795Z,16.33
2023-02-25T21:47:14.497Z,9.82
2023-02-25T21:50:18.138Z,10.77
2023-02-25T21:53:23.405Z,8.52
2023-02-25T21:56:27.366Z,9.65
2023-02-25T21:59:30.505Z,9.90
2023-02-25T22:02:36.212Z,8.50
2023-02-25T22:05:39.664Z,9.10
2023-02-25T22:08:44.669Z,9.20
2023-02-25T22:11:47.711Z,10.40
2023-02-25T22:14:50.743Z,10.00
2023-02-25T22:17:56.060Z,9.50
2023-02-25T22:21:10.793Z,12.98
2023-02-25T22:24:13.859Z,7.03
2023-02-25T22:27:16.925Z,6.25
2023-02-25T22:30:20.761Z,8.02
2023-02-25T22:33:25.278Z,7.32
2023-02-25T22:36:28.446Z,8.05
2023-02-25T22:39:31.478Z,6.30
2023-02-25T22:42:34.526Z,10.65
2023-02-25T22:45:37.535Z,7.50
2023-02-25T22:48:44.099Z,5.97
2023-02-25T22:51:48.172Z,7.97
2023-02-25T22:54:51.197Z,7.50
2023-02-25T22:57:54.142Z,6.40
2023-02-25T23:00:57.122Z,7.35
2023-02-25T23:04:01.830Z,8.77
2023-02-25T23:07:05.084Z,6.57
2023-02-25T23:10:09.494Z,10.93
2023-02-25T23:13:12.862Z,9.95
2023-02-25T23:16:17.227Z,6.25
2023-02-25T23:19:21.730Z,6.88
2023-02-25T23:22:27.061Z,7.07
2023-02-25T23:25:30.908Z,7.40
2023-02-25T23:28:33.986Z,7.15
2023-02-25T23:31:38.611Z,7.07
2023-02-25T23:34:42.969Z,10.40
2023-02-25T23:37:47.049Z,5.55
2023-02-25T23:40:50.249Z,5.55
2023-02-25T23:43:53.879Z,8.13
2023-02-25T23:46:57.035Z,5.68
2023-02-25T23:50:01.493Z,5.10
2023-02-25T23:53:04.428Z,6.03
2023-02-25T23:56:10.128Z,7.70
2023-02-25T23:59:13.648Z,5.93
